Aérodrome :
LOGIN :

S'inscrire | Disclaimer

   EN    FR    IT 

 










Légende :    VFR   VFR Marginal   IFR   IFR Intensif   IFR Très Intensif
Visi : 
Plafond : 
>= 8 km
>= 3000ft
5 à 8 km
1000 à 3000 ft
1500m à 5 km
500 à 1000 ft
800 à 1500m
200 à 500 ft
< 800m
< 200 ft
Symboles :   Orages  Brouillard  Fortes neiges  Fortes précipitations  Vent > 20 kt
SIGMETs :   Divers  Orages  Givrage  Turbulence  Onde Orograph.  Cendres Volcan.







- Altitude de l'aérodrome : 12 ft
- Code IATA : BCN


LEBL - Barcelone

DERNIER METAR :
  • 221500Z 21011KT 9999 FEW020 23/16 Q1017 NOSIG

METARs EXPIRÉS :
  • 221430Z 19010KT 160V240 9999 FEW020 22/16 Q1017 NOSIG
  • 221400Z 19011KT 9999 FEW020 22/15 Q1017 NOSIG
  • 221330Z 17010KT 140V200 9999 FEW020 21/16 Q1017 NOSIG
  • 221300Z 19012KT 150V230 9999 FEW020 22/16 Q1017 NOSIG
  • 221230Z 19011KT 9999 FEW020 22/16 Q1017 NOSIG

TAF TAF LEBL
Valide du 22 à 12h jusqu'au 23 à 12h UTC


221100Z 2212/2312 18010KT 9999 FEW020 TX23/2212Z TN16/2306Z
TEMPO 2218/2222 10006KT
BECMG 2218/2221 VRB04KT
BECMG 2223/2301 34005KT
BECMG 2309/2312 18010KT
Pas de NOTAMs connus pour ce terrain.
1 SIGMET publié pour la FIR Barcelona (LECB) :
 
Orages noyés dans la masse
LECB SIGMET 2 VALID 221426/221600 LEVA
LECB BARCELONA FIR/UIR EMBD TS OBS AT 1426Z N OF LINE N4230 W00050 - N4220 E00230 TOP FL360 MOV ENE NC=



MET'MAP, la Météo Aéronautique d'un coup d'oeil ! - Copyright ORBIFLY Décembre 2007 - Disclaimer

ORBIFLY MET'MAP TEAM :

Programmation & Développement : Alexandra Zaïnal
Conception & Développement : Baudouin d'Aumeries
Co-Programmation & Développement : Marc-Olivier Méhu
Soutien technique & logistique : Manuel Goepfert

Contact : metmap@orbifly.com




SOURCES & CREDITS :

   NOAA